Terminal Aerodrome Forecast
Issued by NWS Midland/Odessa, TX

Home | Current Version | Previous Version | Text Only | Print | Product List | Glossary On
Versions: 1 2 3 4 5 6 7 8 9 10 11 12 13 14 15 16 17 18 19 20 21 22 23 24 25 26
613
FTUS44 KMAF 250108 AAB
TAFMAF
TAF AMD
KMAF 250108Z 2501/2524 12011KT P6SM SCT050
     FM250400 10010KT P6SM OVC012
     FM251700 10011G18KT P6SM SCT050=

USA.gov is the U.S. government's official web portal to all federal, state and local government web resources and services.